Time;durP1;ratioP1;P1;durP2;ratioP2;P2;SDS_P1;SDS_P2;PMS_P1;PMS_P2;Temp;Humidity;BMP_temperature;BMP_pressure;BME280_temperature;BME280_humidity;BME280_pressure;Samples;Min_cycle;Max_cycle;Signal;HPM_P1;HPM_P2
2022/10/09 00:01:58;;;;;;;14.15;2.17;;;;;;;;;;5097626;28;20775;-83
2022/10/09 00:04:26;;;;;;;10.23;2.08;;;;;;;;;;5107159;28;20423;-84
2022/10/09 00:06:59;;;;;;;9.98;2.00;;;;;;;;;;5100850;28;20422;-84
2022/10/09 00:09:32;;;;;;;10.80;2.05;;;;;;;;;;5080090;28;20424;-84
2022/10/09 00:12:04;;;;;;;13.43;2.30;;;;;;;;;;5096094;28;20414;-84
2022/10/09 00:14:38;;;;;;;11.90;2.25;;;;;;;;;;5112493;28;20430;-84
2022/10/09 00:17:11;;;;;;;14.00;2.10;;;;;;;;;;5072951;28;20413;-84
2022/10/09 00:19:44;;;;;;;13.47;2.47;;;;;;;;;;5094349;28;20422;-84
2022/10/09 00:22:17;;;;;;;8.37;2.13;;;;;;;;;;5089483;28;20922;-84
2022/10/09 00:24:44;;;;;;;14.07;2.23;;;;;;;;;;5093491;28;20786;-84
2022/10/09 00:27:17;;;;;;;10.37;2.37;;;;;;;;;;5072651;28;20568;-85
2022/10/09 00:29:47;;;;;;;12.25;2.20;;;;;;;;;;5091312;28;20417;-84
2022/10/09 00:32:14;;;;;;;9.40;2.03;;;;;;;;;;5090978;28;20406;-84
2022/10/09 00:34:42;;;;;;;9.35;1.92;;;;;;;;;;5083132;28;20424;-85
2022/10/09 00:37:10;;;;;;;10.68;2.08;;;;;;;;;;5091648;28;20526;-85
2022/10/09 00:39:38;;;;;;;7.03;1.80;;;;;;;;;;5091036;28;20424;-85
2022/10/09 00:42:10;;;;;;;11.50;1.90;;;;;;;;;;5085882;28;20416;-85
2022/10/09 00:44:51;;;;;;;9.45;2.25;;;;;;;;;;5085696;28;20416;-86
2022/10/09 00:47:22;;;;;;;9.05;2.00;;;;;;;;;;5075359;28;20431;-85
2022/10/09 00:49:51;;;;;;;11.95;1.88;;;;;;;;;;5089574;28;20429;-86
2022/10/09 00:52:25;;;;;;;12.63;1.90;;;;;;;;;;5098621;28;20420;-85
2022/10/09 00:54:53;;;;;;;12.93;2.20;;;;;;;;;;5114977;28;20408;-85
2022/10/09 00:57:21;;;;;;;10.73;2.20;;;;;;;;;;5113001;28;20424;-87
2022/10/09 00:59:51;;;;;;;9.77;2.15;;;;;;;;;;5112832;28;20419;-87
2022/10/09 01:02:23;;;;;;;12.73;2.28;;;;;;;;;;5090755;27;20799;-87
2022/10/09 01:04:51;;;;;;;13.85;2.47;;;;;;;;;;5092192;28;20421;-86
2022/10/09 01:07:27;;;;;;;11.20;2.00;;;;;;;;;;5091717;28;20406;-86
2022/10/09 01:09:56;;;;;;;9.20;1.90;;;;;;;;;;5096584;28;20420;-86
2022/10/09 01:12:34;;;;;;;10.27;2.40;;;;;;;;;;5113484;28;20764;-85
2022/10/09 01:15:11;;;;;;;13.70;2.10;;;;;;;;;;5107854;28;20782;-86
2022/10/09 01:17:51;;;;;;;11.10;2.20;;;;;;;;;;5082228;28;20446;-85
2022/10/09 01:20:26;;;;;;;11.55;2.10;;;;;;;;;;5105701;27;20748;-86
2022/10/09 01:23:01;;;;;;;5.88;1.83;;;;;;;;;;5092328;28;20413;-85
2022/10/09 01:25:35;;;;;;;9.20;2.28;;;;;;;;;;5096226;28;20409;-85
2022/10/09 01:28:10;;;;;;;14.60;2.60;;;;;;;;;;5095720;28;20416;-86
2022/10/09 01:30:38;;;;;;;10.63;2.00;;;;;;;;;;5087961;28;20432;-86
2022/10/09 01:33:11;;;;;;;8.98;2.20;;;;;;;;;;5095799;28;20763;-86
2022/10/09 01:35:44;;;;;;;11.88;2.60;;;;;;;;;;5096449;28;20766;-84
2022/10/09 01:38:17;;;;;;;11.60;2.10;;;;;;;;;;5083038;28;20418;-86
2022/10/09 01:40:45;;;;;;;10.05;2.10;;;;;;;;;;5076314;28;20480;-86
2022/10/09 01:43:15;;;;;;;9.05;2.15;;;;;;;;;;5093742;28;20402;-85
2022/10/09 01:45:44;;;;;;;15.10;2.70;;;;;;;;;;5080577;28;20418;-85
2022/10/09 01:48:17;;;;;;;11.18;2.20;;;;;;;;;;5092345;28;20425;-86
2022/10/09 01:50:52;;;;;;;8.88;1.80;;;;;;;;;;5089676;28;20409;-85
2022/10/09 01:53:21;;;;;;;11.20;2.00;;;;;;;;;;5094955;28;20416;-85
2022/10/09 01:55:50;;;;;;;13.35;2.17;;;;;;;;;;5092188;28;20420;-85
2022/10/09 01:58:28;;;;;;;8.85;2.38;;;;;;;;;;5104331;28;20432;-86
2022/10/09 02:01:03;;;;;;;9.20;2.03;;;;;;;;;;5094836;28;20439;-86
2022/10/09 02:03:38;;;;;;;12.13;2.38;;;;;;;;;;5080519;28;20430;-85
2022/10/09 02:06:08;;;;;;;10.30;2.20;;;;;;;;;;5074598;28;20414;-85
2022/10/09 02:08:37;;;;;;;10.90;2.47;;;;;;;;;;5079585;28;20429;-84
2022/10/09 02:11:10;;;;;;;9.88;2.70;;;;;;;;;;5092090;27;20420;-86
2022/10/09 02:13:39;;;;;;;9.80;2.33;;;;;;;;;;5115572;27;20410;-85
2022/10/09 02:16:12;;;;;;;11.02;2.55;;;;;;;;;;5078156;28;20430;-85
2022/10/09 02:18:46;;;;;;;10.68;2.55;;;;;;;;;;5074239;28;20430;-87
2022/10/09 02:21:22;;;;;;;8.37;2.33;;;;;;;;;;5081263;28;20410;-85
2022/10/09 02:23:56;;;;;;;9.57;2.60;;;;;;;;;;5094647;28;20420;-87
2022/10/09 02:26:24;;;;;;;9.93;2.30;;;;;;;;;;5113540;28;20404;-87
2022/10/09 02:28:58;;;;;;;13.05;2.55;;;;;;;;;;5106161;28;20414;-85
2022/10/09 02:31:32;;;;;;;8.70;2.22;;;;;;;;;;5100969;28;20780;-86
2022/10/09 02:34:07;;;;;;;9.80;2.40;;;;;;;;;;5126148;27;20414;-87
2022/10/09 02:36:39;;;;;;;9.95;2.38;;;;;;;;;;5114797;27;20426;-87
2022/10/09 02:39:07;;;;;;;12.90;2.72;;;;;;;;;;5115140;27;20441;-86
2022/10/09 02:41:40;;;;;;;11.00;2.80;;;;;;;;;;5099802;28;20798;-86
2022/10/09 02:44:09;;;;;;;7.43;2.20;;;;;;;;;;5103340;27;20412;-87
2022/10/09 02:46:42;;;;;;;9.25;2.55;;;;;;;;;;5113184;28;20419;-87
2022/10/09 02:49:15;;;;;;;9.20;2.20;;;;;;;;;;5094647;28;20922;-86
2022/10/09 02:51:48;;;;;;;9.23;2.20;;;;;;;;;;5094105;28;20416;-87
2022/10/09 02:54:15;;;;;;;10.67;2.60;;;;;;;;;;5094288;28;20483;-85
2022/10/09 02:56:43;;;;;;;13.20;3.00;;;;;;;;;;5074157;28;20481;-86
2022/10/09 02:59:17;;;;;;;13.13;3.03;;;;;;;;;;5094484;28;20788;-86
2022/10/09 03:01:45;;;;;;;12.57;3.05;;;;;;;;;;5092232;28;20415;-86
2022/10/09 03:04:13;;;;;;;12.18;2.70;;;;;;;;;;5074003;28;20433;-87
2022/10/09 03:06:41;;;;;;;7.80;2.50;;;;;;;;;;5079220;28;20420;-86
2022/10/09 03:09:13;;;;;;;11.68;2.75;;;;;;;;;;5112327;28;20412;-86
2022/10/09 03:11:41;;;;;;;11.45;2.85;;;;;;;;;;5112815;28;20404;-85
2022/10/09 03:14:14;;;;;;;12.45;2.70;;;;;;;;;;5102493;28;20453;-86
2022/10/09 03:16:48;;;;;;;11.48;2.70;;;;;;;;;;5092422;28;20418;-85
2022/10/09 03:19:21;;;;;;;8.70;2.40;;;;;;;;;;5073403;28;20417;-86
2022/10/09 03:21:48;;;;;;;7.43;2.50;;;;;;;;;;5073876;28;20901;-86
2022/10/09 03:24:16;;;;;;;15.25;3.03;;;;;;;;;;5092305;28;20406;-86
2022/10/09 03:26:44;;;;;;;10.02;2.72;;;;;;;;;;5077207;28;20419;-86
2022/10/09 03:29:12;;;;;;;11.35;2.72;;;;;;;;;;5083366;28;20421;-85
2022/10/09 03:31:44;;;;;;;13.10;2.78;;;;;;;;;;5106516;28;20421;-86
2022/10/09 03:34:18;;;;;;;11.70;2.65;;;;;;;;;;5110230;28;20416;-87
2022/10/09 03:36:46;;;;;;;12.63;2.95;;;;;;;;;;5112474;28;20400;-87
2022/10/09 03:39:19;;;;;;;13.05;2.85;;;;;;;;;;5112157;28;20424;-86
2022/10/09 03:41:47;;;;;;;10.35;2.63;;;;;;;;;;5093856;28;20416;-85
2022/10/09 03:44:20;;;;;;;7.73;2.20;;;;;;;;;;5093495;28;20424;-84
2022/10/09 03:46:52;;;;;;;10.90;2.60;;;;;;;;;;5099239;28;20439;-85
2022/10/09 03:49:22;;;;;;;11.90;3.30;;;;;;;;;;5108335;28;20758;-87
2022/10/09 03:51:54;;;;;;;14.00;3.70;;;;;;;;;;5084274;28;20427;-86
2022/10/09 03:54:27;;;;;;;10.27;3.40;;;;;;;;;;5093650;28;20416;-86
2022/10/09 03:57:00;;;;;;;11.93;3.22;;;;;;;;;;5082676;28;20448;-86
2022/10/09 03:59:33;;;;;;;9.40;3.35;;;;;;;;;;5076071;28;20424;-87
2022/10/09 04:02:05;;;;;;;12.70;2.70;;;;;;;;;;5102328;28;20420;-86
2022/10/09 04:04:39;;;;;;;10.90;2.90;;;;;;;;;;5090401;28;20423;-86
2022/10/09 04:07:12;;;;;;;12.18;3.05;;;;;;;;;;5112123;28;20416;-86
2022/10/09 04:09:45;;;;;;;9.52;3.00;;;;;;;;;;5092253;28;20413;-85
2022/10/09 04:12:18;;;;;;;10.90;3.05;;;;;;;;;;5073328;28;20425;-86
2022/10/09 04:14:45;;;;;;;10.35;2.88;;;;;;;;;;5088589;28;20427;-85
2022/10/09 04:17:13;;;;;;;14.60;3.00;;;;;;;;;;5104437;28;20765;-85
2022/10/09 04:19:42;;;;;;;9.82;2.63;;;;;;;;;;5087895;28;20929;-86
2022/10/09 04:22:10;;;;;;;11.40;2.60;;;;;;;;;;5081060;28;20897;-86
2022/10/09 04:24:38;;;;;;;12.25;3.17;;;;;;;;;;5104027;28;20415;-86
2022/10/09 04:27:11;;;;;;;9.75;2.72;;;;;;;;;;5097435;28;20416;-87
2022/10/09 04:29:43;;;;;;;10.82;3.00;;;;;;;;;;5094789;27;20410;-86
2022/10/09 04:32:16;;;;;;;12.05;2.90;;;;;;;;;;5101092;28;20411;-86
2022/10/09 04:34:45;;;;;;;12.77;2.90;;;;;;;;;;5115855;28;20864;-86
2022/10/09 04:37:13;;;;;;;10.10;2.75;;;;;;;;;;5097344;28;20412;-87
2022/10/09 04:39:46;;;;;;;11.48;3.13;;;;;;;;;;5096155;28;20416;-87
2022/10/09 04:42:14;;;;;;;14.25;3.33;;;;;;;;;;5100032;28;20422;-86
2022/10/09 04:44:46;;;;;;;13.40;3.15;;;;;;;;;;5089628;28;20426;-87
2022/10/09 04:47:14;;;;;;;13.70;2.95;;;;;;;;;;5094990;28;20402;-86
2022/10/09 04:49:48;;;;;;;12.90;3.03;;;;;;;;;;5076983;28;20418;-87
2022/10/09 04:52:21;;;;;;;10.65;3.05;;;;;;;;;;5078310;28;20422;-87
2022/10/09 04:54:54;;;;;;;11.43;3.00;;;;;;;;;;5093772;28;20422;-86
2022/10/09 04:57:27;;;;;;;10.00;3.00;;;;;;;;;;5112417;28;20408;-86
2022/10/09 04:59:54;;;;;;;13.30;3.58;;;;;;;;;;5086493;28;20421;-86
2022/10/09 05:02:27;;;;;;;11.95;3.42;;;;;;;;;;5088697;28;20414;-85
2022/10/09 05:05:01;;;;;;;12.43;3.75;;;;;;;;;;5076418;28;20402;-86
2022/10/09 05:07:34;;;;;;;12.47;4.40;;;;;;;;;;5075462;28;20944;-86
2022/10/09 05:10:02;;;;;;;12.90;4.73;;;;;;;;;;5075809;28;20417;-85
2022/10/09 05:12:34;;;;;;;11.77;3.87;;;;;;;;;;5106989;27;20416;-86
2022/10/09 05:15:03;;;;;;;12.97;3.70;;;;;;;;;;5106211;28;21088;-86
2022/10/09 05:17:36;;;;;;;13.13;4.13;;;;;;;;;;5096257;28;20408;-86
2022/10/09 05:20:10;;;;;;;11.77;3.47;;;;;;;;;;5114317;28;20780;-86
2022/10/09 05:22:43;;;;;;;10.73;3.45;;;;;;;;;;5113954;28;20435;-87
2022/10/09 05:25:11;;;;;;;8.55;3.10;;;;;;;;;;5093917;28;20428;-87
2022/10/09 05:27:39;;;;;;;8.98;3.50;;;;;;;;;;5093630;28;20420;-87
2022/10/09 05:30:12;;;;;;;12.27;3.10;;;;;;;;;;5090660;28;20428;-86
2022/10/09 05:32:44;;;;;;;11.03;3.10;;;;;;;;;;5091074;28;20433;-86
2022/10/09 05:35:14;;;;;;;12.30;3.10;;;;;;;;;;5100068;28;20435;-86
2022/10/09 05:37:43;;;;;;;9.00;3.08;;;;;;;;;;5098278;28;20427;-86
2022/10/09 05:40:16;;;;;;;12.45;3.45;;;;;;;;;;5092067;28;20449;-86
2022/10/09 05:42:49;;;;;;;11.10;3.35;;;;;;;;;;5088693;28;20412;-86
2022/10/09 05:45:17;;;;;;;9.75;3.30;;;;;;;;;;5112477;28;20899;-86
2022/10/09 05:47:46;;;;;;;8.52;3.47;;;;;;;;;;5105380;28;20880;-86
2022/10/09 05:50:15;;;;;;;10.45;3.40;;;;;;;;;;5092931;28;20416;-86
2022/10/09 05:52:42;;;;;;;12.70;3.70;;;;;;;;;;5090682;28;20416;-86
2022/10/09 05:55:15;;;;;;;14.87;4.07;;;;;;;;;;5092778;27;20412;-86
2022/10/09 05:57:49;;;;;;;10.27;3.67;;;;;;;;;;5104873;28;20416;-86
2022/10/09 06:00:22;;;;;;;12.02;3.67;;;;;;;;;;5094614;27;20429;-86
2022/10/09 06:02:50;;;;;;;13.18;3.65;;;;;;;;;;5096951;28;20421;-86
2022/10/09 06:05:19;;;;;;;11.32;3.72;;;;;;;;;;5104674;28;20417;-85
2022/10/09 06:07:51;;;;;;;10.57;3.60;;;;;;;;;;5077935;28;20418;-86
2022/10/09 06:10:19;;;;;;;11.88;3.92;;;;;;;;;;5080863;27;20896;-85
2022/10/09 06:12:47;;;;;;;13.57;4.25;;;;;;;;;;5111853;27;20413;-85
2022/10/09 06:15:20;;;;;;;11.38;3.95;;;;;;;;;;5105151;28;20786;-85
2022/10/09 06:17:52;;;;;;;14.73;5.10;;;;;;;;;;5095233;28;20432;-85
2022/10/09 06:20:22;;;;;;;15.38;4.00;;;;;;;;;;5097414;28;20412;-85
2022/10/09 06:22:55;;;;;;;11.90;3.97;;;;;;;;;;5086786;28;20413;-86
2022/10/09 06:25:22;;;;;;;15.00;4.10;;;;;;;;;;5111592;27;20418;-86
2022/10/09 06:27:50;;;;;;;8.90;3.33;;;;;;;;;;5094159;28;20408;-85
2022/10/09 06:30:23;;;;;;;10.88;3.97;;;;;;;;;;5094992;28;20405;-86
2022/10/09 06:32:55;;;;;;;11.32;3.25;;;;;;;;;;5113630;28;20428;-86
2022/10/09 06:35:33;;;;;;;12.23;3.50;;;;;;;;;;5088362;28;20428;-86
2022/10/09 06:38:06;;;;;;;11.88;3.53;;;;;;;;;;5090027;28;20425;-86
2022/10/09 06:40:39;;;;;;;11.13;3.50;;;;;;;;;;5086818;28;20416;-86
2022/10/09 06:43:07;;;;;;;15.48;3.35;;;;;;;;;;5074947;28;21259;-87
2022/10/09 06:45:36;;;;;;;11.50;3.20;;;;;;;;;;5093129;28;20405;-87
2022/10/09 06:48:04;;;;;;;17.85;3.45;;;;;;;;;;5074275;28;20748;-87
2022/10/09 06:50:38;;;;;;;12.82;3.47;;;;;;;;;;5085273;28;20440;-86
2022/10/09 06:53:11;;;;;;;12.98;3.83;;;;;;;;;;5082978;28;20430;-85
2022/10/09 06:55:38;;;;;;;15.75;3.30;;;;;;;;;;5093950;28;20409;-86
2022/10/09 06:58:06;;;;;;;8.77;3.08;;;;;;;;;;5089346;28;20417;-86
2022/10/09 07:00:34;;;;;;;10.43;3.20;;;;;;;;;;5074632;28;20413;-86
2022/10/09 07:03:02;;;;;;;13.48;3.42;;;;;;;;;;5092989;28;20900;-86
2022/10/09 07:05:29;;;;;;;14.40;2.70;;;;;;;;;;5076909;28;20906;-87
2022/10/09 07:07:59;;;;;;;14.98;3.15;;;;;;;;;;5073956;28;20484;-87
2022/10/09 07:10:31;;;;;;;14.50;3.13;;;;;;;;;;5074394;28;20414;-87
2022/10/09 07:12:59;;;;;;;12.75;2.97;;;;;;;;;;5078267;28;20400;-87
2022/10/09 07:15:27;;;;;;;13.38;3.28;;;;;;;;;;5106441;28;20404;-86
2022/10/09 07:17:55;;;;;;;8.30;3.00;;;;;;;;;;5093537;28;20432;-87
2022/10/09 07:20:28;;;;;;;8.98;3.05;;;;;;;;;;5109835;27;20921;-88
2022/10/09 07:22:55;;;;;;;10.32;3.00;;;;;;;;;;5073326;28;20434;-87
2022/10/09 07:25:25;;;;;;;13.50;3.33;;;;;;;;;;5101647;27;20924;-88
2022/10/09 07:27:52;;;;;;;12.20;3.15;;;;;;;;;;5089418;28;20433;-88
2022/10/09 07:30:20;;;;;;;12.15;3.35;;;;;;;;;;5089709;27;20757;-88
2022/10/09 07:32:48;;;;;;;14.23;3.22;;;;;;;;;;5095703;28;20419;-88
2022/10/09 07:35:21;;;;;;;10.32;3.30;;;;;;;;;;5086125;27;20429;-88
2022/10/09 07:37:48;;;;;;;12.02;3.20;;;;;;;;;;5091141;28;20402;-88
2022/10/09 07:40:16;;;;;;;10.15;3.20;;;;;;;;;;5082118;28;20429;-87
2022/10/09 07:42:45;;;;;;;12.98;3.40;;;;;;;;;;5082689;28;20421;-84
2022/10/09 07:45:13;;;;;;;10.48;4.15;;;;;;;;;;5103691;28;20416;-82
2022/10/09 07:47:46;;;;;;;14.10;4.70;;;;;;;;;;5101821;28;20433;-87
2022/10/09 07:50:14;;;;;;;13.93;3.70;;;;;;;;;;5086637;28;21045;-87
2022/10/09 07:52:42;;;;;;;13.45;5.93;;;;;;;;;;5085386;28;20420;-87
2022/10/09 07:55:09;;;;;;;16.20;4.82;;;;;;;;;;5097290;28;20431;-86
2022/10/09 07:57:37;;;;;;;12.25;5.40;;;;;;;;;;5083620;28;20416;-87
2022/10/09 08:00:07;;;;;;;10.43;3.90;;;;;;;;;;5084913;28;20435;-86
2022/10/09 08:02:40;;;;;;;11.33;4.13;;;;;;;;;;5110386;28;20906;-86
2022/10/09 08:05:13;;;;;;;13.03;7.37;;;;;;;;;;5088576;28;20500;-87
2022/10/09 08:07:40;;;;;;;12.83;4.70;;;;;;;;;;5102161;28;20487;-89
2022/10/09 08:10:13;;;;;;;8.75;4.20;;;;;;;;;;5106137;28;20428;-89
2022/10/09 08:12:41;;;;;;;13.63;3.35;;;;;;;;;;5092129;28;20412;-88
2022/10/09 08:15:12;;;;;;;13.30;3.80;;;;;;;;;;5091832;28;20424;-87
2022/10/09 08:17:39;;;;;;;13.60;5.38;;;;;;;;;;5108531;27;20766;-88
2022/10/09 08:20:08;;;;;;;13.40;4.45;;;;;;;;;;5079992;28;20433;-89
2022/10/09 08:22:35;;;;;;;10.48;3.70;;;;;;;;;;5098305;28;20412;-89
2022/10/09 08:25:03;;;;;;;9.68;3.50;;;;;;;;;;5100755;28;20936;-88
2022/10/09 08:27:36;;;;;;;14.70;3.63;;;;;;;;;;5093551;28;20429;-87
2022/10/09 08:30:04;;;;;;;17.50;8.32;;;;;;;;;;5092769;28;20438;-87
2022/10/09 08:32:39;;;;;;;10.90;3.92;;;;;;;;;;5087216;28;20415;-88
2022/10/09 08:35:08;;;;;;;14.60;4.57;;;;;;;;;;5103764;28;20777;-88
2022/10/09 08:37:40;;;;;;;9.18;3.85;;;;;;;;;;5097780;27;20411;-89
2022/10/09 08:40:16;;;;;;;10.45;3.40;;;;;;;;;;5093576;28;20954;-88
2022/10/09 08:42:51;;;;;;;8.55;2.53;;;;;;;;;;5106711;28;20426;-87
2022/10/09 08:45:19;;;;;;;8.43;3.47;;;;;;;;;;5093367;28;20447;-87
2022/10/09 08:47:50;;;;;;;17.08;3.38;;;;;;;;;;5108023;27;20422;-86
2022/10/09 08:50:25;;;;;;;13.32;3.30;;;;;;;;;;5108894;28;20798;-88
2022/10/09 08:53:02;;;;;;;10.80;2.45;;;;;;;;;;5098147;28;20418;-86
2022/10/09 08:55:36;;;;;;;12.70;3.30;;;;;;;;;;5091121;28;20421;-87
2022/10/09 08:58:14;;;;;;;13.52;2.58;;;;;;;;;;5087632;28;20425;-87
2022/10/09 09:00:44;;;;;;;11.73;4.60;;;;;;;;;;5092410;28;20408;-86
2022/10/09 09:03:24;;;;;;;8.73;2.90;;;;;;;;;;5097136;28;20424;-87
2022/10/09 09:05:58;;;;;;;10.18;2.50;;;;;;;;;;5103329;27;20788;-85
2022/10/09 09:08:30;;;;;;;18.38;5.60;;;;;;;;;;5083379;28;20432;-87
2022/10/09 09:11:04;;;;;;;13.35;4.43;;;;;;;;;;5096008;28;20426;-87
2022/10/09 09:13:44;;;;;;;9.60;3.40;;;;;;;;;;5106794;28;20414;-85
2022/10/09 09:16:21;;;;;;;9.57;3.10;;;;;;;;;;5108394;28;20772;-86
2022/10/09 09:19:09;;;;;;;7.80;1.83;;;;;;;;;;5089913;28;20435;-85
2022/10/09 09:21:40;;;;;;;14.10;4.57;;;;;;;;;;5094298;28;20898;-85
2022/10/09 09:24:15;;;;;;;8.97;3.40;;;;;;;;;;5114787;28;20807;-88
2022/10/09 09:26:43;;;;;;;10.00;2.60;;;;;;;;;;5103070;28;20412;-85
2022/10/09 09:29:20;;;;;;;9.23;2.30;;;;;;;;;;5094397;28;20405;-85
2022/10/09 09:31:55;;;;;;;7.65;1.70;;;;;;;;;;5084360;28;20414;-86
2022/10/09 09:34:34;;;;;;;7.63;2.25;;;;;;;;;;5095092;28;20408;-84
2022/10/09 09:37:02;;;;;;;8.52;1.70;;;;;;;;;;5096209;28;20423;-84
2022/10/09 09:39:32;;;;;;;8.15;1.83;;;;;;;;;;5095773;28;20423;-89
2022/10/09 09:42:12;;;;;;;8.50;1.80;;;;;;;;;;5089330;28;20416;-84
2022/10/09 09:44:47;;;;;;;7.95;2.25;;;;;;;;;;5107367;28;20901;-85
2022/10/09 09:47:19;;;;;;;6.13;1.42;;;;;;;;;;5083853;28;20433;-86
2022/10/09 09:49:56;;;;;;;7.18;1.40;;;;;;;;;;5100988;28;20412;-85
2022/10/09 09:52:24;;;;;;;7.55;1.90;;;;;;;;;;5114202;28;20396;-84
2022/10/09 09:54:58;;;;;;;5.53;1.50;;;;;;;;;;5095114;28;20408;-84
2022/10/09 09:57:36;;;;;;;7.85;1.73;;;;;;;;;;5102801;28;20419;-85
2022/10/09 10:00:09;;;;;;;8.68;1.70;;;;;;;;;;5080019;28;20424;-86
2022/10/09 10:02:42;;;;;;;8.48;2.30;;;;;;;;;;5104594;28;20940;-87
2022/10/09 10:05:18;;;;;;;7.75;1.63;;;;;;;;;;5089692;28;20418;-85
2022/10/09 10:07:51;;;;;;;11.32;1.73;;;;;;;;;;5088400;28;20767;-86
2022/10/09 10:10:20;;;;;;;8.67;1.63;;;;;;;;;;5079112;28;20424;-85
2022/10/09 10:12:53;;;;;;;7.75;1.30;;;;;;;;;;5085018;28;20430;-86
2022/10/09 10:15:22;;;;;;;6.87;1.30;;;;;;;;;;5086018;28;20430;-85
2022/10/09 10:17:58;;;;;;;8.30;1.70;;;;;;;;;;5084846;28;20432;-85
2022/10/09 10:20:33;;;;;;;9.27;1.90;;;;;;;;;;5078907;28;20424;-84
2022/10/09 10:23:20;;;;;;;5.78;1.70;;;;;;;;;;5093206;28;20410;-86
2022/10/09 10:25:48;;;;;;;7.25;1.50;;;;;;;;;;5096467;28;20409;-84
2022/10/09 10:28:24;;;;;;;7.60;1.30;;;;;;;;;;5106375;27;20423;-84
2022/10/09 10:30:58;;;;;;;8.45;1.65;;;;;;;;;;5096938;28;20933;-85
2022/10/09 10:33:29;;;;;;;7.13;1.50;;;;;;;;;;5091206;28;20424;-84
2022/10/09 10:35:58;;;;;;;6.50;1.35;;;;;;;;;;5113761;28;20411;-84
2022/10/09 10:38:32;;;;;;;8.80;1.33;;;;;;;;;;5094638;28;20420;-85
2022/10/09 10:41:10;;;;;;;7.55;1.40;;;;;;;;;;5099560;28;20416;-85
2022/10/09 10:43:44;;;;;;;7.20;1.13;;;;;;;;;;5102957;28;20412;-84
2022/10/09 10:46:21;;;;;;;5.50;1.00;;;;;;;;;;5098049;27;20429;-85
2022/10/09 10:48:54;;;;;;;7.45;1.38;;;;;;;;;;5091447;28;20428;-85
2022/10/09 10:51:42;;;;;;;8.93;1.33;;;;;;;;;;5092045;28;20785;-85
2022/10/09 10:54:24;;;;;;;11.80;1.30;;;;;;;;;;5106401;27;20415;-83
2022/10/09 10:56:54;;;;;;;8.52;1.38;;;;;;;;;;5090056;28;20406;-85
2022/10/09 10:59:32;;;;;;;8.07;1.38;;;;;;;;;;5077064;28;20929;-84
2022/10/09 11:02:25;;;;;;;6.15;1.23;;;;;;;;;;5109540;28;20423;-86
2022/10/09 11:04:56;;;;;;;4.43;1.15;;;;;;;;;;5090678;28;20414;-84
2022/10/09 11:07:34;;;;;;;7.57;1.20;;;;;;;;;;5090751;28;20492;-84
2022/10/09 11:10:11;;;;;;;8.13;1.30;;;;;;;;;;5072751;28;20817;-84
2022/10/09 11:12:50;;;;;;;7.25;1.55;;;;;;;;;;5083850;28;22795;-84
2022/10/09 11:15:30;;;;;;;6.57;1.10;;;;;;;;;;5090312;28;20448;-84
2022/10/09 11:18:03;;;;;;;9.37;1.40;;;;;;;;;;5104462;28;20424;-84
2022/10/09 11:20:42;;;;;;;6.22;1.20;;;;;;;;;;5089134;28;20430;-84
2022/10/09 11:23:13;;;;;;;9.52;1.50;;;;;;;;;;5098558;28;20424;-84
2022/10/09 11:25:46;;;;;;;10.18;1.50;;;;;;;;;;5093768;28;20412;-84
2022/10/09 11:28:22;;;;;;;8.85;1.58;;;;;;;;;;5106216;28;20420;-84
2022/10/09 11:30:59;;;;;;;8.00;1.35;;;;;;;;;;5088504;28;20426;-84
2022/10/09 11:33:34;;;;;;;6.80;1.27;;;;;;;;;;5094179;28;20472;-85
2022/10/09 11:36:07;;;;;;;6.35;1.67;;;;;;;;;;5110694;27;21071;-86
2022/10/09 11:38:38;;;;;;;9.63;1.60;;;;;;;;;;5083862;28;20425;-85
2022/10/09 11:41:06;;;;;;;4.72;1.30;;;;;;;;;;5087778;28;20413;-86
2022/10/09 11:43:45;;;;;;;10.05;1.60;;;;;;;;;;5084288;28;20416;-85
2022/10/09 11:46:21;;;;;;;9.38;1.80;;;;;;;;;;5089544;28;20417;-84
2022/10/09 11:48:53;;;;;;;10.32;1.70;;;;;;;;;;5082955;28;20431;-86
2022/10/09 11:51:30;;;;;;;4.80;1.20;;;;;;;;;;5092634;28;20642;-84
2022/10/09 11:54:05;;;;;;;8.00;1.73;;;;;;;;;;5096447;28;20420;-85
2022/10/09 11:56:33;;;;;;;8.13;1.73;;;;;;;;;;5085791;28;20788;-85
2022/10/09 11:59:02;;;;;;;9.63;1.70;;;;;;;;;;5081967;28;20417;-85
2022/10/09 12:01:36;;;;;;;10.77;1.80;;;;;;;;;;5105838;28;20424;-84
2022/10/09 12:04:06;;;;;;;10.02;1.50;;;;;;;;;;5092985;28;20420;-85
2022/10/09 12:06:44;;;;;;;5.00;1.40;;;;;;;;;;5092903;28;20951;-85
2022/10/09 12:09:20;;;;;;;4.93;1.20;;;;;;;;;;5090498;28;21021;-84
2022/10/09 12:11:54;;;;;;;6.25;1.38;;;;;;;;;;5093185;28;20420;-83
2022/10/09 12:14:28;;;;;;;5.50;1.20;;;;;;;;;;5093543;28;20423;-83
2022/10/09 12:16:57;;;;;;;8.52;1.60;;;;;;;;;;5083836;28;20425;-83
2022/10/09 12:19:26;;;;;;;5.95;1.50;;;;;;;;;;5096422;28;20417;-83
2022/10/09 12:22:04;;;;;;;8.60;1.50;;;;;;;;;;5091750;28;20398;-84
2022/10/09 12:24:37;;;;;;;6.32;1.30;;;;;;;;;;5073444;28;20422;-85
2022/10/09 12:27:17;;;;;;;6.10;1.45;;;;;;;;;;5083640;28;20411;-84
2022/10/09 12:29:46;;;;;;;8.13;1.40;;;;;;;;;;5092208;28;20484;-84
2022/10/09 12:32:16;;;;;;;4.67;1.30;;;;;;;;;;5087662;28;20480;-85
2022/10/09 12:34:50;;;;;;;6.65;1.50;;;;;;;;;;5109962;28;20400;-84
2022/10/09 12:37:31;;;;;;;4.70;1.35;;;;;;;;;;5105615;28;20435;-84
2022/10/09 12:40:16;;;;;;;7.60;1.40;;;;;;;;;;5092791;28;20406;-84
2022/10/09 12:42:50;;;;;;;7.27;1.40;;;;;;;;;;5102776;28;20412;-84
2022/10/09 12:45:21;;;;;;;7.45;1.58;;;;;;;;;;5091186;28;20413;-85
2022/10/09 12:47:54;;;;;;;5.53;1.30;;;;;;;;;;5087575;28;20922;-84
2022/10/09 12:50:30;;;;;;;4.38;1.23;;;;;;;;;;5077118;28;20793;-85
2022/10/09 12:53:04;;;;;;;7.50;1.50;;;;;;;;;;5076762;28;20422;-85
2022/10/09 12:55:34;;;;;;;4.75;1.50;;;;;;;;;;5077110;28;20425;-85
2022/10/09 12:58:08;;;;;;;6.30;1.20;;;;;;;;;;5094901;28;20414;-84
2022/10/09 13:00:36;;;;;;;5.45;1.20;;;;;;;;;;5077115;28;20426;-85
2022/10/09 13:03:22;;;;;;;7.07;1.30;;;;;;;;;;5076734;28;20414;-84
2022/10/09 13:05:56;;;;;;;6.53;1.23;;;;;;;;;;5083018;28;20912;-84
2022/10/09 13:08:26;;;;;;;8.45;1.48;;;;;;;;;;5115046;28;20404;-81
2022/10/09 13:10:56;;;;;;;5.13;1.30;;;;;;;;;;5115259;28;20397;-82
2022/10/09 13:13:28;;;;;;;7.32;1.10;;;;;;;;;;5091494;28;20425;-83
2022/10/09 13:16:00;;;;;;;10.27;1.40;;;;;;;;;;5104570;28;20412;-84
2022/10/09 13:18:33;;;;;;;8.25;1.50;;;;;;;;;;5076240;28;20421;-82
2022/10/09 13:21:19;;;;;;;8.10;1.25;;;;;;;;;;5102386;28;20428;-84
2022/10/09 13:23:46;;;;;;;10.18;1.10;;;;;;;;;;5102778;28;20428;-85
2022/10/09 13:26:19;;;;;;;3.35;1.00;;;;;;;;;;5082800;28;20428;-85
2022/10/09 13:28:53;;;;;;;7.20;1.40;;;;;;;;;;5098231;28;20416;-85
2022/10/09 13:31:26;;;;;;;4.63;1.20;;;;;;;;;;5095248;28;20427;-86
2022/10/09 13:33:59;;;;;;;8.25;1.80;;;;;;;;;;5074043;28;21421;-84
2022/10/09 13:36:28;;;;;;;6.90;1.40;;;;;;;;;;5095120;28;20438;-86
2022/10/09 13:38:56;;;;;;;4.47;1.27;;;;;;;;;;5075465;28;20439;-85
2022/10/09 13:41:26;;;;;;;7.38;1.55;;;;;;;;;;5101722;28;20408;-84
2022/10/09 13:43:58;;;;;;;5.40;1.25;;;;;;;;;;5080342;28;20439;-89
2022/10/09 13:46:31;;;;;;;7.30;1.45;;;;;;;;;;5092890;28;20424;-86
2022/10/09 13:49:04;;;;;;;9.98;1.50;;;;;;;;;;5067768;28;20435;-86
2022/10/09 13:51:32;;;;;;;4.20;1.10;;;;;;;;;;5071627;28;20432;-86
2022/10/09 13:54:00;;;;;;;6.75;1.10;;;;;;;;;;5084008;28;20420;-87
2022/10/09 13:56:29;;;;;;;8.90;1.30;;;;;;;;;;5097658;28;20408;-84
2022/10/09 13:59:02;;;;;;;5.75;1.20;;;;;;;;;;5072522;28;20435;-85
2022/10/09 14:01:30;;;;;;;3.75;1.00;;;;;;;;;;5072917;28;20879;-84
2022/10/09 14:04:03;;;;;;;4.25;1.13;;;;;;;;;;5077363;28;21753;-85
2022/10/09 14:06:33;;;;;;;4.78;1.10;;;;;;;;;;5087939;28;20761;-85
2022/10/09 14:09:01;;;;;;;3.97;1.10;;;;;;;;;;5098702;28;20412;-85
2022/10/09 14:11:30;;;;;;;7.32;1.25;;;;;;;;;;5076889;28;20538;-84
2022/10/09 14:13:58;;;;;;;5.60;0.97;;;;;;;;;;5083436;28;20416;-84
2022/10/09 14:16:31;;;;;;;4.60;1.10;;;;;;;;;;5071704;28;20424;-84
2022/10/09 14:19:04;;;;;;;3.63;1.00;;;;;;;;;;5089946;28;21388;-87
2022/10/09 14:21:33;;;;;;;6.68;1.30;;;;;;;;;;5093041;28;20400;-83
2022/10/09 14:24:02;;;;;;;3.58;0.80;;;;;;;;;;5102488;28;20404;-85
2022/10/09 14:26:31;;;;;;;4.22;0.95;;;;;;;;;;5071335;28;20409;-85
2022/10/09 14:29:00;;;;;;;6.05;0.95;;;;;;;;;;5073403;28;20423;-86
2022/10/09 14:31:28;;;;;;;4.35;0.90;;;;;;;;;;5072742;28;20436;-87
2022/10/09 14:34:01;;;;;;;5.05;1.05;;;;;;;;;;5071428;28;21005;-88
2022/10/09 14:36:35;;;;;;;6.47;1.20;;;;;;;;;;5099131;28;20416;-83
2022/10/09 14:39:03;;;;;;;6.47;1.00;;;;;;;;;;5104699;28;20404;-84
2022/10/09 14:41:38;;;;;;;5.20;1.03;;;;;;;;;;5086890;28;20421;-84
2022/10/09 14:44:06;;;;;;;4.65;1.13;;;;;;;;;;5071972;28;20897;-84
2022/10/09 14:46:39;;;;;;;4.55;1.05;;;;;;;;;;5085939;28;20792;-86
2022/10/09 14:49:10;;;;;;;5.00;0.90;;;;;;;;;;5078339;27;20951;-84
2022/10/09 14:51:43;;;;;;;5.93;1.02;;;;;;;;;;5097893;28;20428;-85
2022/10/09 14:54:11;;;;;;;6.63;1.20;;;;;;;;;;5104023;28;20408;-83
2022/10/09 14:56:40;;;;;;;7.70;1.02;;;;;;;;;;5075674;28;21140;-84
2022/10/09 14:59:08;;;;;;;5.13;1.08;;;;;;;;;;5067712;28;20447;-85
2022/10/09 15:01:36;;;;;;;5.90;1.10;;;;;;;;;;5072590;28;20435;-87
2022/10/09 15:04:05;;;;;;;4.70;1.05;;;;;;;;;;5070696;28;20918;-84